sensor_id;sensor_type;location;lat;lon;timestamp;pressure;altitude;pressure_sealevel;temperature;humidity
16690;BME280;8458;52.220;9.884;2023-03-22T00:01:45;100297.38;;;10.15;93.97
16690;BME280;8458;52.220;9.884;2023-03-22T00:04:11;100300.91;;;10.05;93.98
16690;BME280;8458;52.220;9.884;2023-03-22T00:06:37;100297.88;;;10.01;94.04
16690;BME280;8458;52.220;9.884;2023-03-22T00:09:04;100304.22;;;9.97;94.45
16690;BME280;8458;52.220;9.884;2023-03-22T00:11:31;100307.84;;;10.02;94.23
16690;BME280;8458;52.220;9.884;2023-03-22T00:13:57;100309.47;;;9.93;94.58
16690;BME280;8458;52.220;9.884;2023-03-22T00:16:25;100298.94;;;9.95;94.51
16690;BME280;8458;52.220;9.884;2023-03-22T00:18:52;100308.09;;;9.96;94.48
16690;BME280;8458;52.220;9.884;2023-03-22T00:21:18;100316.38;;;9.96;94.48
16690;BME280;8458;52.220;9.884;2023-03-22T00:23:45;100304.22;;;9.97;94.34
16690;BME280;8458;52.220;9.884;2023-03-22T00:26:12;100298.69;;;9.97;94.43
16690;BME280;8458;52.220;9.884;2023-03-22T00:28:40;100309.22;;;10.00;94.23
16690;BME280;8458;52.220;9.884;2023-03-22T00:31:07;100304.78;;;9.99;94.37
16690;BME280;8458;52.220;9.884;2023-03-22T00:33:35;100290.91;;;9.99;94.21
16690;BME280;8458;52.220;9.884;2023-03-22T00:36:04;100294.81;;;9.98;94.23
16690;BME280;8458;52.220;9.884;2023-03-22T00:38:31;100290.09;;;9.93;94.55
16690;BME280;8458;52.220;9.884;2023-03-22T00:41:09;100292.00;;;9.93;94.43
16690;BME280;8458;52.220;9.884;2023-03-22T00:43:36;100285.94;;;9.96;94.18
16690;BME280;8458;52.220;9.884;2023-03-22T00:46:03;100287.00;;;9.84;94.24
16690;BME280;8458;52.220;9.884;2023-03-22T00:48:30;100284.50;;;9.88;93.85
16690;BME280;8458;52.220;9.884;2023-03-22T00:50:58;100285.91;;;9.85;93.94
16690;BME280;8458;52.220;9.884;2023-03-22T00:53:24;100280.94;;;9.93;93.43
16690;BME280;8458;52.220;9.884;2023-03-22T00:55:53;100267.63;;;9.90;93.59
16690;BME280;8458;52.220;9.884;2023-03-22T00:58:20;100274.28;;;9.89;93.70
16690;BME280;8458;52.220;9.884;2023-03-22T01:00:46;100273.19;;;9.95;93.34
16690;BME280;8458;52.220;9.884;2023-03-22T01:03:13;100272.06;;;9.91;93.25
16690;BME280;8458;52.220;9.884;2023-03-22T01:05:40;100271.25;;;9.90;93.02
16690;BME280;8458;52.220;9.884;2023-03-22T01:08:09;100264.56;;;9.86;93.35
16690;BME280;8458;52.220;9.884;2023-03-22T01:10:38;100259.84;;;9.86;93.40
16690;BME280;8458;52.220;9.884;2023-03-22T01:13:05;100258.78;;;9.93;93.16
16690;BME280;8458;52.220;9.884;2023-03-22T01:15:32;100259.84;;;9.86;93.39
16690;BME280;8458;52.220;9.884;2023-03-22T01:17:59;100252.66;;;9.85;93.45
16690;BME280;8458;52.220;9.884;2023-03-22T01:20:26;100247.41;;;9.89;93.62
16690;BME280;8458;52.220;9.884;2023-03-22T01:22:53;100249.63;;;9.87;93.70
16690;BME280;8458;52.220;9.884;2023-03-22T01:25:21;100244.38;;;9.91;93.87
16690;BME280;8458;52.220;9.884;2023-03-22T01:27:47;100243.28;;;9.92;93.93
16690;BME280;8458;52.220;9.884;2023-03-22T01:30:14;100246.03;;;9.92;93.82
16690;BME280;8458;52.220;9.884;2023-03-22T01:32:40;100241.06;;;9.99;93.39
16690;BME280;8458;52.220;9.884;2023-03-22T01:35:08;100242.75;;;10.00;93.25
16690;BME280;8458;52.220;9.884;2023-03-22T01:37:34;100233.03;;;9.97;93.59
16690;BME280;8458;52.220;9.884;2023-03-22T01:40:01;100236.63;;;9.93;93.76
16690;BME280;8458;52.220;9.884;2023-03-22T01:42:29;100226.13;;;10.00;93.56
16690;BME280;8458;52.220;9.884;2023-03-22T01:45:32;100230.56;;;10.01;93.27
16690;BME280;8458;52.220;9.884;2023-03-22T01:48:03;100227.78;;;10.01;93.21
16690;BME280;8458;52.220;9.884;2023-03-22T01:50:31;100226.66;;;9.97;93.84
16690;BME280;8458;52.220;9.884;2023-03-22T01:52:58;100221.66;;;9.94;94.43
16690;BME280;8458;52.220;9.884;2023-03-22T01:55:29;100214.44;;;9.82;95.27
16690;BME280;8458;52.220;9.884;2023-03-22T01:58:00;100216.41;;;9.87;95.38
16690;BME280;8458;52.220;9.884;2023-03-22T02:00:26;100215.53;;;9.81;95.85
16690;BME280;8458;52.220;9.884;2023-03-22T02:02:53;100211.69;;;9.87;95.83
16690;BME280;8458;52.220;9.884;2023-03-22T02:05:20;100208.63;;;9.89;95.83
16690;BME280;8458;52.220;9.884;2023-03-22T02:07:48;100206.69;;;9.90;96.14
16690;BME280;8458;52.220;9.884;2023-03-22T02:10:17;100202.22;;;9.78;97.01
16690;BME280;8458;52.220;9.884;2023-03-22T02:13:04;100196.16;;;9.76;97.48
16690;BME280;8458;52.220;9.884;2023-03-22T02:15:37;100197.78;;;9.77;97.58
16690;BME280;8458;52.220;9.884;2023-03-22T02:18:20;100191.97;;;9.68;98.74
16690;BME280;8458;52.220;9.884;2023-03-22T02:21:22;100202.50;;;9.72;98.87
16690;BME280;8458;52.220;9.884;2023-03-22T02:24:18;100193.38;;;9.76;98.58
16690;BME280;8458;52.220;9.884;2023-03-22T02:29:58;100195.59;;;9.79;98.12
16690;BME280;8458;52.220;9.884;2023-03-22T02:32:47;100196.75;;;9.89;97.72
16690;BME280;8458;52.220;9.884;2023-03-22T02:38:44;100192.88;;;9.95;97.11
16690;BME280;8458;52.220;9.884;2023-03-22T02:41:16;100198.69;;;9.93;97.16
16690;BME280;8458;52.220;9.884;2023-03-22T02:43:59;100192.34;;;9.98;97.19
16690;BME280;8458;52.220;9.884;2023-03-22T02:46:29;100185.41;;;9.95;97.28
16690;BME280;8458;52.220;9.884;2023-03-22T02:49:03;100181.53;;;9.96;97.39
16690;BME280;8458;52.220;9.884;2023-03-22T02:51:36;100192.34;;;9.98;97.40
16690;BME280;8458;52.220;9.884;2023-03-22T02:54:10;100190.13;;;9.95;97.53
16690;BME280;8458;52.220;9.884;2023-03-22T02:56:42;100187.34;;;9.95;97.42
16690;BME280;8458;52.220;9.884;2023-03-22T02:59:12;100195.06;;;9.87;97.85
16690;BME280;8458;52.220;9.884;2023-03-22T03:01:42;100184.00;;;9.87;97.87
16690;BME280;8458;52.220;9.884;2023-03-22T03:04:14;100191.75;;;9.91;97.65
16690;BME280;8458;52.220;9.884;2023-03-22T03:06:43;100195.63;;;9.90;97.69
16690;BME280;8458;52.220;9.884;2023-03-22T03:09:13;100198.38;;;9.90;97.56
16690;BME280;8458;52.220;9.884;2023-03-22T03:11:43;100191.22;;;9.89;97.97
16690;BME280;8458;52.220;9.884;2023-03-22T03:14:19;100195.06;;;9.93;98.28
16690;BME280;8458;52.220;9.884;2023-03-22T03:16:52;100183.44;;;9.91;97.89
16690;BME280;8458;52.220;9.884;2023-03-22T03:19:27;100184.56;;;9.95;97.68
16690;BME280;8458;52.220;9.884;2023-03-22T03:22:00;100185.66;;;9.94;97.39
16690;BME280;8458;52.220;9.884;2023-03-22T03:24:32;100182.91;;;9.89;97.47
16690;BME280;8458;52.220;9.884;2023-03-22T03:27:06;100180.94;;;9.89;97.70
16690;BME280;8458;52.220;9.884;2023-03-22T03:29:38;100172.66;;;9.94;97.62
16690;BME280;8458;52.220;9.884;2023-03-22T03:32:09;100183.44;;;9.91;97.80
16690;BME280;8458;52.220;9.884;2023-03-22T03:34:42;100180.13;;;9.89;97.68
16690;BME280;8458;52.220;9.884;2023-03-22T03:37:16;100171.53;;;9.90;97.86
16690;BME280;8458;52.220;9.884;2023-03-22T03:39:50;100169.31;;;9.92;97.65
16690;BME280;8458;52.220;9.884;2023-03-22T03:42:20;100165.16;;;9.90;97.89
16690;BME280;8458;52.220;9.884;2023-03-22T03:44:49;100164.59;;;9.93;97.69
16690;BME280;8458;52.220;9.884;2023-03-22T03:47:15;100169.59;;;9.96;97.41
16690;BME280;8458;52.220;9.884;2023-03-22T03:49:43;100162.16;;;9.96;97.19
16690;BME280;8458;52.220;9.884;2023-03-22T03:52:10;100162.94;;;9.86;97.90
16690;BME280;8458;52.220;9.884;2023-03-22T03:54:37;100153.53;;;9.82;98.12
16690;BME280;8458;52.220;9.884;2023-03-22T03:57:05;100157.97;;;9.89;98.11
16690;BME280;8458;52.220;9.884;2023-03-22T03:59:32;100153.53;;;9.87;97.73
16690;BME280;8458;52.220;9.884;2023-03-22T04:01:58;100157.38;;;9.81;97.92
16690;BME280;8458;52.220;9.884;2023-03-22T04:04:26;100138.31;;;9.90;97.36
16690;BME280;8458;52.220;9.884;2023-03-22T04:06:53;100150.75;;;9.87;97.87
16690;BME280;8458;52.220;9.884;2023-03-22T04:09:21;100149.66;;;9.89;97.65
16690;BME280;8458;52.220;9.884;2023-03-22T04:11:47;100149.09;;;9.81;97.70
16690;BME280;8458;52.220;9.884;2023-03-22T04:14:15;100135.81;;;9.89;97.48
16690;BME280;8458;52.220;9.884;2023-03-22T04:16:41;100150.22;;;9.91;97.51
16690;BME280;8458;52.220;9.884;2023-03-22T04:19:08;100138.59;;;9.94;97.37
16690;BME280;8458;52.220;9.884;2023-03-22T04:21:34;100133.31;;;9.97;96.96
16690;BME280;8458;52.220;9.884;2023-03-22T04:24:01;100131.69;;;9.96;96.93
16690;BME280;8458;52.220;9.884;2023-03-22T04:26:27;100127.50;;;9.94;97.46
16690;BME280;8458;52.220;9.884;2023-03-22T04:28:54;100122.53;;;9.96;97.17
16690;BME280;8458;52.220;9.884;2023-03-22T04:31:22;100132.19;;;9.88;97.75
16690;BME280;8458;52.220;9.884;2023-03-22T04:33:48;100124.75;;;9.89;97.81
16690;BME280;8458;52.220;9.884;2023-03-22T04:36:20;100124.16;;;9.81;98.60
16690;BME280;8458;52.220;9.884;2023-03-22T04:38:47;100124.44;;;9.85;98.68
16690;BME280;8458;52.220;9.884;2023-03-22T04:41:14;100121.41;;;9.81;98.44
16690;BME280;8458;52.220;9.884;2023-03-22T04:43:40;100127.75;;;9.82;98.78
16690;BME280;8458;52.220;9.884;2023-03-22T04:46:11;100120.84;;;9.79;98.90
16690;BME280;8458;52.220;9.884;2023-03-22T04:48:40;100128.03;;;9.80;98.83
16690;BME280;8458;52.220;9.884;2023-03-22T04:51:09;100134.41;;;9.81;98.45
16690;BME280;8458;52.220;9.884;2023-03-22T04:53:36;100128.34;;;9.94;98.00
16690;BME280;8458;52.220;9.884;2023-03-22T04:56:04;100125.84;;;9.87;97.84
16690;BME280;8458;52.220;9.884;2023-03-22T04:58:31;100129.69;;;9.86;97.89
16690;BME280;8458;52.220;9.884;2023-03-22T05:00:58;100129.16;;;9.90;97.63
16690;BME280;8458;52.220;9.884;2023-03-22T05:03:24;100130.84;;;9.91;97.87
16690;BME280;8458;52.220;9.884;2023-03-22T05:05:54;100129.19;;;9.95;97.42
16690;BME280;8458;52.220;9.884;2023-03-22T05:08:23;100125.56;;;9.94;97.31
16690;BME280;8458;52.220;9.884;2023-03-22T05:10:50;100130.84;;;9.91;97.53
16690;BME280;8458;52.220;9.884;2023-03-22T05:13:17;100128.59;;;9.93;97.53
16690;BME280;8458;52.220;9.884;2023-03-22T05:15:44;100126.69;;;9.93;97.64
16690;BME280;8458;52.220;9.884;2023-03-22T05:18:11;100128.09;;;10.01;97.19
16690;BME280;8458;52.220;9.884;2023-03-22T05:20:39;100125.88;;;10.03;96.96
16690;BME280;8458;52.220;9.884;2023-03-22T05:23:06;100119.22;;;10.04;96.78
16690;BME280;8458;52.220;9.884;2023-03-22T05:25:34;100111.47;;;10.01;96.79
16690;BME280;8458;52.220;9.884;2023-03-22T05:28:00;100116.75;;;10.02;96.61
16690;BME280;8458;52.220;9.884;2023-03-22T05:30:27;100129.19;;;10.05;96.42
16690;BME280;8458;52.220;9.884;2023-03-22T05:32:57;100129.19;;;10.05;96.27
16690;BME280;8458;52.220;9.884;2023-03-22T05:35:27;100127.25;;;10.05;96.52
16690;BME280;8458;52.220;9.884;2023-03-22T05:37:54;100133.06;;;10.04;96.48
16690;BME280;8458;52.220;9.884;2023-03-22T05:40:23;100134.72;;;10.05;96.78
16690;BME280;8458;52.220;9.884;2023-03-22T05:42:51;100128.09;;;10.06;96.62
16690;BME280;8458;52.220;9.884;2023-03-22T05:45:18;100125.88;;;10.13;96.00
16690;BME280;8458;52.220;9.884;2023-03-22T05:47:45;100116.44;;;10.14;95.94
16690;BME280;8458;52.220;9.884;2023-03-22T05:50:14;100115.34;;;10.20;95.26
16690;BME280;8458;52.220;9.884;2023-03-22T05:52:41;100115.06;;;10.22;95.05
16690;BME280;8458;52.220;9.884;2023-03-22T05:55:09;100110.34;;;10.17;95.33
16690;BME280;8458;52.220;9.884;2023-03-22T05:57:38;100126.44;;;10.20;95.03
16690;BME280;8458;52.220;9.884;2023-03-22T06:00:05;100112.59;;;10.26;94.87
16690;BME280;8458;52.220;9.884;2023-03-22T06:02:37;100112.31;;;10.22;95.11
16690;BME280;8458;52.220;9.884;2023-03-22T06:05:04;100104.00;;;10.22;94.95
16690;BME280;8458;52.220;9.884;2023-03-22T06:07:31;100110.34;;;10.17;95.05
16690;BME280;8458;52.220;9.884;2023-03-22T06:09:58;100105.41;;;10.19;95.06
16690;BME280;8458;52.220;9.884;2023-03-22T06:12:25;100103.72;;;10.23;95.08
16690;BME280;8458;52.220;9.884;2023-03-22T06:14:53;100093.19;;;10.31;94.67
16690;BME280;8458;52.220;9.884;2023-03-22T06:17:19;100097.63;;;10.32;94.45
16690;BME280;8458;52.220;9.884;2023-03-22T06:19:46;100092.66;;;10.34;94.60
16690;BME280;8458;52.220;9.884;2023-03-22T06:22:12;100093.50;;;10.34;94.51
16690;BME280;8458;52.220;9.884;2023-03-22T06:24:39;100097.06;;;10.30;94.97
16690;BME280;8458;52.220;9.884;2023-03-22T06:27:06;100099.88;;;10.35;95.04
16690;BME280;8458;52.220;9.884;2023-03-22T06:29:33;100099.34;;;10.38;94.51
16690;BME280;8458;52.220;9.884;2023-03-22T06:32:01;100098.72;;;10.31;94.64
16690;BME280;8458;52.220;9.884;2023-03-22T06:34:28;100103.47;;;10.35;94.51
16690;BME280;8458;52.220;9.884;2023-03-22T06:36:54;100095.44;;;10.34;94.67
16690;BME280;8458;52.220;9.884;2023-03-22T06:39:21;100112.31;;;10.22;95.11
16690;BME280;8458;52.220;9.884;2023-03-22T06:41:47;100094.31;;;10.19;95.78
16690;BME280;8458;52.220;9.884;2023-03-22T06:44:14;100096.25;;;10.14;95.75
16690;BME280;8458;52.220;9.884;2023-03-22T06:46:41;100094.84;;;10.11;96.63
16690;BME280;8458;52.220;9.884;2023-03-22T06:49:09;100099.81;;;10.14;96.37
16690;BME280;8458;52.220;9.884;2023-03-22T06:51:35;100102.03;;;10.17;96.54
16690;BME280;8458;52.220;9.884;2023-03-22T06:54:02;100098.72;;;10.20;96.23
16690;BME280;8458;52.220;9.884;2023-03-22T06:56:28;100098.16;;;10.23;96.54
16690;BME280;8458;52.220;9.884;2023-03-22T06:58:55;100099.28;;;10.28;96.31
16690;BME280;8458;52.220;9.884;2023-03-22T07:01:22;100093.19;;;10.31;96.14
16690;BME280;8458;52.220;9.884;2023-03-22T07:03:49;100091.53;;;10.30;96.72
16690;BME280;8458;52.220;9.884;2023-03-22T07:06:17;100090.75;;;10.39;96.46
16690;BME280;8458;52.220;9.884;2023-03-22T07:08:43;100083.78;;;10.42;96.55
16690;BME280;8458;52.220;9.884;2023-03-22T07:11:10;100090.19;;;10.43;95.93
16690;BME280;8458;52.220;9.884;2023-03-22T07:13:37;100084.38;;;10.44;96.56
16690;BME280;8458;52.220;9.884;2023-03-22T07:16:04;100074.38;;;10.53;96.42
16690;BME280;8458;52.220;9.884;2023-03-22T07:18:31;100084.06;;;10.56;96.53
16690;BME280;8458;52.220;9.884;2023-03-22T07:20:57;100089.31;;;10.57;96.59
16690;BME280;8458;52.220;9.884;2023-03-22T07:23:25;100081.56;;;10.65;96.45
16690;BME280;8458;52.220;9.884;2023-03-22T07:25:51;100081.81;;;10.68;96.11
16690;BME280;8458;52.220;9.884;2023-03-22T07:28:20;100070.16;;;10.71;96.36
16690;BME280;8458;52.220;9.884;2023-03-22T07:30:47;100070.44;;;10.80;96.41
16690;BME280;8458;52.220;9.884;2023-03-22T07:33:13;100077.88;;;10.90;96.03
16690;BME280;8458;52.220;9.884;2023-03-22T07:35:40;100080.06;;;10.98;94.64
16690;BME280;8458;52.220;9.884;2023-03-22T07:38:06;100077.56;;;11.07;94.35
16690;BME280;8458;52.220;9.884;2023-03-22T07:40:35;100083.31;;;11.21;94.38
16690;BME280;8458;52.220;9.884;2023-03-22T07:43:01;100074.13;;;11.30;93.40
16690;BME280;8458;52.220;9.884;2023-03-22T07:45:28;100065.75;;;11.41;93.29
16690;BME280;8458;52.220;9.884;2023-03-22T07:47:54;100068.50;;;11.51;92.42
16690;BME280;8458;52.220;9.884;2023-03-22T07:50:21;100077.31;;;11.63;91.93
16690;BME280;8458;52.220;9.884;2023-03-22T07:52:47;100075.03;;;11.71;92.22
16690;BME280;8458;52.220;9.884;2023-03-22T07:55:14;100072.75;;;11.78;91.25
16690;BME280;8458;52.220;9.884;2023-03-22T07:57:41;100063.31;;;11.79;89.90
16690;BME280;8458;52.220;9.884;2023-03-22T08:00:09;100064.94;;;11.85;88.61
16690;BME280;8458;52.220;9.884;2023-03-22T08:02:36;100064.34;;;11.88;88.65
16690;BME280;8458;52.220;9.884;2023-03-22T08:05:03;100071.03;;;11.92;88.14
16690;BME280;8458;52.220;9.884;2023-03-22T08:07:31;100064.34;;;11.93;87.61
16690;BME280;8458;52.220;9.884;2023-03-22T08:09:58;100061.81;;;11.97;87.78
16690;BME280;8458;52.220;9.884;2023-03-22T08:12:24;100077.56;;;12.07;88.10
16690;BME280;8458;52.220;9.884;2023-03-22T08:14:53;100068.63;;;12.15;87.37
16690;BME280;8458;52.220;9.884;2023-03-22T08:17:20;100067.47;;;12.21;86.64
16690;BME280;8458;52.220;9.884;2023-03-22T08:19:46;100065.50;;;12.22;87.50
16690;BME280;8458;52.220;9.884;2023-03-22T08:22:14;100056.31;;;12.26;86.12
16690;BME280;8458;52.220;9.884;2023-03-22T08:24:40;100053.53;;;12.26;85.55
16690;BME280;8458;52.220;9.884;2023-03-22T08:27:07;100056.84;;;12.28;85.78
16690;BME280;8458;52.220;9.884;2023-03-22T08:29:33;100054.63;;;12.30;85.54
16690;BME280;8458;52.220;9.884;2023-03-22T08:32:02;100044.59;;;12.29;85.00
16690;BME280;8458;52.220;9.884;2023-03-22T08:34:29;100050.16;;;12.29;84.20
16690;BME280;8458;52.220;9.884;2023-03-22T08:36:57;100042.41;;;12.26;84.22
16690;BME280;8458;52.220;9.884;2023-03-22T08:39:23;100047.38;;;12.29;84.51
16690;BME280;8458;52.220;9.884;2023-03-22T08:41:50;100028.75;;;12.30;84.16
16690;BME280;8458;52.220;9.884;2023-03-22T08:44:16;100027.94;;;12.29;84.49
16690;BME280;8458;52.220;9.884;2023-03-22T08:46:43;100026.22;;;12.33;84.25
16690;BME280;8458;52.220;9.884;2023-03-22T08:49:10;100021.84;;;12.27;84.63
16690;BME280;8458;52.220;9.884;2023-03-22T08:51:38;100026.53;;;12.32;84.34
16690;BME280;8458;52.220;9.884;2023-03-22T08:54:05;100015.44;;;12.27;84.64
16690;BME280;8458;52.220;9.884;2023-03-22T08:56:31;100010.13;;;12.30;84.72
16690;BME280;8458;52.220;9.884;2023-03-22T08:59:02;99999.47;;;12.37;84.89
16690;BME280;8458;52.220;9.884;2023-03-22T09:01:28;99999.47;;;12.37;84.19
16690;BME280;8458;52.220;9.884;2023-03-22T09:03:55;99995.88;;;12.37;82.52
16690;BME280;8458;52.220;9.884;2023-03-22T09:06:22;99989.44;;;12.42;83.40
16690;BME280;8458;52.220;9.884;2023-03-22T09:08:50;99990.03;;;12.38;82.24
16690;BME280;8458;52.220;9.884;2023-03-22T09:11:17;99989.44;;;12.42;82.41
16690;BME280;8458;52.220;9.884;2023-03-22T09:13:44;99998.31;;;12.44;82.09
16690;BME280;8458;52.220;9.884;2023-03-22T09:16:10;99992.44;;;12.45;82.42
16690;BME280;8458;52.220;9.884;2023-03-22T09:18:37;99977.16;;;12.48;82.10
16690;BME280;8458;52.220;9.884;2023-03-22T09:21:05;99983.78;;;12.52;82.77
16690;BME280;8458;52.220;9.884;2023-03-22T09:23:33;99978.16;;;12.57;81.91
16690;BME280;8458;52.220;9.884;2023-03-22T09:26:01;99980.34;;;12.60;81.21
16690;BME280;8458;52.220;9.884;2023-03-22T09:28:29;99973.91;;;12.65;81.18
16690;BME280;8458;52.220;9.884;2023-03-22T09:30:59;99969.13;;;12.70;80.62
16690;BME280;8458;52.220;9.884;2023-03-22T09:33:25;99961.81;;;12.74;79.47
16690;BME280;8458;52.220;9.884;2023-03-22T09:35:52;99963.47;;;12.76;79.65
16690;BME280;8458;52.220;9.884;2023-03-22T09:38:19;99950.88;;;12.83;79.45
16690;BME280;8458;52.220;9.884;2023-03-22T09:40:53;99959.09;;;12.94;79.73
16690;BME280;8458;52.220;9.884;2023-03-22T09:43:25;99959.31;;;12.97;79.09
16690;BME280;8458;52.220;9.884;2023-03-22T09:45:53;99959.31;;;12.97;78.72
16690;BME280;8458;52.220;9.884;2023-03-22T09:48:22;99959.22;;;13.02;78.57
16690;BME280;8458;52.220;9.884;2023-03-22T09:50:53;99945.50;;;13.11;78.05
16690;BME280;8458;52.220;9.884;2023-03-22T09:53:23;99957.44;;;13.12;77.18
16690;BME280;8458;52.220;9.884;2023-03-22T09:55:56;99952.94;;;13.16;77.24
16690;BME280;8458;52.220;9.884;2023-03-22T09:58:28;99943.00;;;13.09;77.37
16690;BME280;8458;52.220;9.884;2023-03-22T10:01:00;99951.19;;;13.20;78.14
16690;BME280;8458;52.220;9.884;2023-03-22T10:03:45;99943.81;;;13.29;77.53
16690;BME280;8458;52.220;9.884;2023-03-22T10:06:19;99941.00;;;13.34;77.04
16690;BME280;8458;52.220;9.884;2023-03-22T10:08:54;99934.84;;;13.37;75.38
16690;BME280;8458;52.220;9.884;2023-03-22T10:11:33;99940.94;;;13.39;74.63
16690;BME280;8458;52.220;9.884;2023-03-22T10:14:15;99956.72;;;13.44;74.11
16690;BME280;8458;52.220;9.884;2023-03-22T10:16:45;99938.50;;;13.52;75.08
16690;BME280;8458;52.220;9.884;2023-03-22T10:19:17;99937.41;;;13.53;74.40
16690;BME280;8458;52.220;9.884;2023-03-22T10:21:47;99941.22;;;13.57;73.24
16690;BME280;8458;52.220;9.884;2023-03-22T10:24:18;99936.38;;;13.62;72.93
16690;BME280;8458;52.220;9.884;2023-03-22T10:26:47;99940.91;;;13.77;73.92
16690;BME280;8458;52.220;9.884;2023-03-22T10:29:19;99927.31;;;13.90;73.14
16690;BME280;8458;52.220;9.884;2023-03-22T10:31:48;99936.69;;;13.94;72.12
16690;BME280;8458;52.220;9.884;2023-03-22T10:34:19;99927.50;;;13.93;71.94
16690;BME280;8458;52.220;9.884;2023-03-22T10:36:48;99934.84;;;14.03;72.23
16690;BME280;8458;52.220;9.884;2023-03-22T10:39:25;99935.41;;;14.05;71.56
16690;BME280;8458;52.220;9.884;2023-03-22T10:41:54;99924.66;;;14.12;72.22
16690;BME280;8458;52.220;9.884;2023-03-22T10:44:23;99932.50;;;14.10;71.00
16690;BME280;8458;52.220;9.884;2023-03-22T10:46:52;99925.28;;;14.09;71.40
16690;BME280;8458;52.220;9.884;2023-03-22T10:49:23;99933.94;;;14.08;70.83
16690;BME280;8458;52.220;9.884;2023-03-22T10:51:55;99930.59;;;13.92;70.43
16690;BME280;8458;52.220;9.884;2023-03-22T10:54:24;99931.06;;;13.99;70.97
16690;BME280;8458;52.220;9.884;2023-03-22T10:56:51;99936.63;;;13.99;70.62
16690;BME280;8458;52.220;9.884;2023-03-22T10:59:43;99937.56;;;14.08;70.00
16690;BME280;8458;52.220;9.884;2023-03-22T11:02:17;99934.78;;;14.08;69.32
16690;BME280;8458;52.220;9.884;2023-03-22T11:04:46;99932.72;;;14.14;69.53
16690;BME280;8458;52.220;9.884;2023-03-22T11:07:15;99932.94;;;14.18;69.69
16690;BME280;8458;52.220;9.884;2023-03-22T11:09:57;99929.34;;;14.31;70.15
16690;BME280;8458;52.220;9.884;2023-03-22T11:12:23;99919.66;;;14.42;69.33
16690;BME280;8458;52.220;9.884;2023-03-22T11:14:51;99913.44;;;14.45;67.25
16690;BME280;8458;52.220;9.884;2023-03-22T11:17:21;99910.13;;;14.43;68.04
16690;BME280;8458;52.220;9.884;2023-03-22T11:19:51;99897.63;;;14.55;69.07
16690;BME280;8458;52.220;9.884;2023-03-22T11:22:24;99906.59;;;14.51;68.43
16690;BME280;8458;52.220;9.884;2023-03-22T11:24:51;99896.19;;;14.43;67.98
16690;BME280;8458;52.220;9.884;2023-03-22T11:27:23;99909.63;;;14.41;68.79
16690;BME280;8458;52.220;9.884;2023-03-22T11:29:53;99900.53;;;14.49;69.04
16690;BME280;8458;52.220;9.884;2023-03-22T11:32:24;99910.34;;;14.61;69.33
16690;BME280;8458;52.220;9.884;2023-03-22T11:34:58;99909.22;;;14.62;68.16
16690;BME280;8458;52.220;9.884;2023-03-22T11:37:25;99903.22;;;14.68;68.57
16690;BME280;8458;52.220;9.884;2023-03-22T11:39:58;99905.50;;;14.80;67.29
16690;BME280;8458;52.220;9.884;2023-03-22T11:42:25;99897.22;;;14.89;67.45
16690;BME280;8458;52.220;9.884;2023-03-22T11:44:54;99907.94;;;14.96;67.74
16690;BME280;8458;52.220;9.884;2023-03-22T11:47:24;99902.78;;;15.03;66.94
16690;BME280;8458;52.220;9.884;2023-03-22T11:49:52;99905.25;;;15.04;66.98
16690;BME280;8458;52.220;9.884;2023-03-22T11:52:22;99899.66;;;15.04;66.36
16690;BME280;8458;52.220;9.884;2023-03-22T11:54:50;99897.56;;;15.10;67.10
16690;BME280;8458;52.220;9.884;2023-03-22T11:57:20;99904.94;;;15.06;67.01
16690;BME280;8458;52.220;9.884;2023-03-22T11:59:54;99899.34;;;15.06;66.34
16690;BME280;8458;52.220;9.884;2023-03-22T12:02:24;99908.53;;;15.06;67.49
16690;BME280;8458;52.220;9.884;2023-03-22T12:04:55;99911.44;;;15.15;66.83
16690;BME280;8458;52.220;9.884;2023-03-22T12:07:27;99903.06;;;15.15;67.47
16690;BME280;8458;52.220;9.884;2023-03-22T12:09:57;99895.06;;;15.22;66.67
16690;BME280;8458;52.220;9.884;2023-03-22T12:12:28;99908.28;;;15.31;66.00
16690;BME280;8458;52.220;9.884;2023-03-22T12:15:00;99903.91;;;15.38;66.02
16690;BME280;8458;52.220;9.884;2023-03-22T12:17:34;99902.84;;;15.48;66.86
16690;BME280;8458;52.220;9.884;2023-03-22T12:20:06;99900.44;;;15.55;65.87
16690;BME280;8458;52.220;9.884;2023-03-22T12:22:40;99898.94;;;15.58;65.31
16690;BME280;8458;52.220;9.884;2023-03-22T12:25:12;99900.28;;;15.60;63.96
16690;BME280;8458;52.220;9.884;2023-03-22T12:27:41;99895.09;;;15.68;64.83
16690;BME280;8458;52.220;9.884;2023-03-22T12:30:15;99898.06;;;15.71;64.18
16690;BME280;8458;52.220;9.884;2023-03-22T12:32:45;99904.63;;;15.67;65.14
16690;BME280;8458;52.220;9.884;2023-03-22T12:35:15;99899.53;;;15.69;65.00
16690;BME280;8458;52.220;9.884;2023-03-22T12:37:45;99907.72;;;15.65;64.76
16690;BME280;8458;52.220;9.884;2023-03-22T12:40:20;99912.91;;;15.58;64.42
16690;BME280;8458;52.220;9.884;2023-03-22T12:42:55;99905.94;;;15.47;64.83
16690;BME280;8458;52.220;9.884;2023-03-22T12:45:27;99906.19;;;15.36;65.45
16690;BME280;8458;52.220;9.884;2023-03-22T12:47:57;99894.81;;;15.33;65.45
16690;BME280;8458;52.220;9.884;2023-03-22T12:50:30;99892.47;;;15.26;66.01
16690;BME280;8458;52.220;9.884;2023-03-22T12:53:00;99907.88;;;15.23;65.57
16690;BME280;8458;52.220;9.884;2023-03-22T12:55:30;99896.31;;;15.16;65.38
16690;BME280;8458;52.220;9.884;2023-03-22T12:57:57;99895.69;;;15.19;65.74
16690;BME280;8458;52.220;9.884;2023-03-22T13:00:27;99890.94;;;15.20;65.25
16690;BME280;8458;52.220;9.884;2023-03-22T13:02:58;99889.91;;;15.16;65.84
16690;BME280;8458;52.220;9.884;2023-03-22T13:05:27;99887.75;;;15.13;66.29
16690;BME280;8458;52.220;9.884;2023-03-22T13:07:55;99895.22;;;15.03;66.33
16690;BME280;8458;52.220;9.884;2023-03-22T13:10:46;99878.97;;;15.05;67.13
16690;BME280;8458;52.220;9.884;2023-03-22T13:13:15;99888.50;;;15.04;66.71
16690;BME280;8458;52.220;9.884;2023-03-22T13:15:58;99876.50;;;15.04;64.81
16690;BME280;8458;52.220;9.884;2023-03-22T13:18:33;99883.34;;;14.98;65.32
16690;BME280;8458;52.220;9.884;2023-03-22T13:21:11;99866.72;;;14.93;66.35
16690;BME280;8458;52.220;9.884;2023-03-22T13:23:53;99871.78;;;14.91;66.13
16690;BME280;8458;52.220;9.884;2023-03-22T13:26:22;99872.59;;;14.91;65.63